• Join FlightAware (Why Join?)
  • Login
  • US Flag 
06:37AM EDT


 

Airport Tracker/Info


-or-


 

Live Flight TrackerFlight Track Log ✈ VH-HTV ✈ 19-Sep-2013 ✈ YMOH - YMOH

Flight Track Log - Related Links

Times and Time Zones

All times are in EDT time to prevent confusion due to time zone crossing. See the VH-HTV flight status page for this flight to view local times or setup timezone preferences in your user account.

Time Position Orientation Groundspeed Altitude Reporting Facility
EDT Latitude Longitude Course Direction KTS MPH feet Rate Location/Type
10:10PM -27.4993 152.9982 106° East 77 89 1,000  Level Aus ATC (RADAR)
10:10PM -27.5007 153.0039 106° East 76 87 1,100 -120 Climbing Aus ATC (RADAR)
10:11PM -27.5061 153.0151 119° Southeast 69 79 900  Descending Aus ATC (RADAR)
10:12PM -27.5141 153.0254 131° Southeast 57 66 1,100 60 Climbing Aus ATC (RADAR)
10:12PM -27.5197 153.0335 128° Southeast 57 66 1,000 -120 Descending Aus ATC (RADAR)
10:13PM -27.5275 153.0470 123° Southeast 56 64 1,000  Level Aus ATC (RADAR)
10:14PM -27.5296 153.0506 124° Southeast 55 63 1,000  Level Aus ATC (RADAR)
10:15PM -27.5374 153.0718 112° Southeast 43 49 1,000  Level Aus ATC (RADAR)
10:15PM -27.5331 153.0703 344° North 48 55 1,100 60 Climbing Aus ATC (RADAR)
10:16PM -27.5224 153.0622 326° Northwest 63 72 1,100 -120 Level Aus ATC (RADAR)
10:17PM -27.5106 153.0562 336° Northwest 62 71 1,000 -180 Descending Aus ATC (RADAR)
10:17PM -27.5021 153.0513 333° Northwest 58 67 900  Descending Aus ATC (RADAR)
10:18PM -27.4928 153.0501 353° North 44 51 1,000 60 Climbing Aus ATC (RADAR)
10:19PM -27.4893 153.0552 52° Northeast 38 44 1,000  Level Aus ATC (RADAR)
10:20PM -27.4997 153.0544 184° South 49 56 1,000  Level Aus ATC (RADAR)
10:20PM -27.4958 153.0504 317° Northwest 44 51 1,000  Level Aus ATC (RADAR)
10:21PM -27.4909 153.0520 16° North 31 36  Descending Aus ATC (RADAR)
10:22PM -27.4873 153.0601 63° Northeast 32 37 1,000 660 Climbing Aus ATC (RADAR)
10:22PM -27.4943 153.0671 139° Southeast 54 62 1,000 60 Level Aus ATC (RADAR)
10:23PM -27.5164 153.0667 181° South 95 109 1,100  Climbing Aus ATC (RADAR)
10:24PM -27.5242 153.0600 217° Southwest 98 113 1,000 -300 Descending Aus ATC (RADAR)
10:27PM -27.4960 153.0018 360° North -300 Descending Aus ATC (Calculated)
10:27PM -27.4960 153.0018 360° North  Level Aus ATC (Calculated)